Forside
METAR-TAF:

METAR-TAF

Lufthavne :

Kalamazoo / Battle Creek, Michigan, USA

Breddekreds: 42-13-45N, længdekreds: 085-32-47W, højde: 266 m

Aktuelle vejr

Denne rapport blev lavet for 36 minutter siden, kl. 17:53 UTC
Vind 13 kt fra sydsydvest
Temperatur 8°C
Fugtighed 49%
Tryk 1014 hPa
Sigt: 16.1 km
skyfri

METAR: KAZO 231753Z 20013KT 10SM CLR 08/M02 A2995 RMK AO2 SLP149 T00831022 10083 21011 58017

Tid: 13:29 (18:29 UTC)

Vejrudsigter

Denne rapport blev lavet for 49 minutter siden, kl. 17:40 UTC
Foreløbig gælder fra 23 på 18 UTC til 24 på 18 UTC
Vind 10 kt fra sydsydvest
Sigt: 10 km
skyfri
Fra 24 på 0700 UTC
Vind 5 kt fra vest
Sigt: 10 km
Brudte skyer i en højde af 4000 ft
Fra 24 på 0900 UTC
Vind 3 kt fra varierende retninger
Sigt: 10 km
Overskyet i en højde af 1500 ft

TAF: KAZO 231740Z 2318/2418 21010KT P6SM SKC FM240700 26005KT P6SM BKN040 FM240900 VRB03KT P6SM OVC015

Vejrobservationer og prognoser fra mere end 4000 lufthavne (METAR og TAF).

De gule og røde prikker repræsenterer de meteorologiske stationer.

Flyt musen over at se navnet på stationen.

Så klik over at se vejr observationer og prognoser.

At skifte det kort: Klik på de grønne knapper med et sort kors for at zoome ind; på den grønne knap med en bindestreg for at zoome ud; eller på de grønne pile for tilstødende kort.


METAR-TAF: